Time,TemperatureF,DewpointF,PressureIn,WindDirection,WindDirectionDegrees,WindSpeedMPH,WindSpeedGustMPH,Humidity,HourlyPrecipIn,Conditions,Clouds,dailyrainin,SoftwareType,DateUTC
2013-09-19 00:01:00,60.0,58.6,30.09,SSE,163,0.0,0.0,95,0.00,,,0.00,VWS V14.01,2013-09-19 04:01:00,
2013-09-19 00:02:00,60.1,58.7,30.09,SE,133,0.0,1.0,95,0.00,,,0.00,VWS V14.01,2013-09-19 04:02:00,
2013-09-19 00:07:00,60.4,59.0,30.09,SSW,197,5.0,6.0,95,0.00,,,0.00,VWS V14.01,2013-09-19 04:07:00,
2013-09-19 00:08:00,60.5,59.0,30.09,SSE,167,2.0,6.0,95,0.00,,,0.00,weatherlink.com 1.10,2013-09-19 04:08:00,
2013-09-19 00:13:00,60.8,59.1,30.09,WSW,252,0.0,3.0,94,0.00,,,0.00,VWS V14.01,2013-09-19 04:13:00,
2013-09-19 00:18:00,61.1,59.4,30.09,SE,134,3.0,4.0,94,0.00,,,0.00,VWS V14.01,2013-09-19 04:18:00,
2013-09-19 00:23:00,61.2,59.2,30.10,SSW,212,0.0,6.0,93,0.00,,,0.00,VWS V14.01,2013-09-19 04:23:00,
2013-09-19 00:28:00,61.3,59.3,30.10,SSW,200,1.0,4.0,93,0.00,,,0.00,VWS V14.01,2013-09-19 04:28:00,
2013-09-19 00:33:00,61.4,59.4,30.10,SSW,195,1.0,4.0,93,0.00,,,0.00,VWS V14.01,2013-09-19 04:33:00,
2013-09-19 00:38:00,61.4,59.4,30.09,SE,139,1.0,6.0,93,0.00,,,0.00,VWS V14.01,2013-09-19 04:38:00,
2013-09-19 00:43:00,61.4,59.4,30.09,SSW,201,4.0,5.0,93,0.00,,,0.00,VWS V14.01,2013-09-19 04:43:00,
2013-09-19 00:48:00,61.4,59.4,30.10,WSW,239,1.0,6.0,93,0.00,,,0.00,VWS V14.01,2013-09-19 04:48:00,
2013-09-19 00:53:00,61.3,59.3,30.10,SSW,211,2.0,4.0,93,0.00,,,0.00,VWS V14.01,2013-09-19 04:53:00,
2013-09-19 00:58:00,61.3,59.3,30.09,SW,223,6.0,6.0,93,0.00,,,0.00,VWS V14.01,2013-09-19 04:58:00,
2013-09-19 01:03:00,61.3,59.3,30.10,SE,133,1.0,2.0,93,0.00,,,0.00,VWS V14.01,2013-09-19 05:03:00,
2013-09-19 01:08:00,61.3,59.3,30.10,SSW,210,1.0,5.0,93,0.00,,,0.00,VWS V14.01,2013-09-19 05:08:00,
2013-09-19 01:13:00,61.4,59.4,30.10,SW,223,4.0,4.0,93,0.00,,,0.00,VWS V14.01,2013-09-19 05:13:00,
2013-09-19 01:18:00,61.4,59.4,30.09,SSW,207,3.0,8.0,93,0.00,,,0.00,VWS V14.01,2013-09-19 05:18:00,
2013-09-19 01:23:00,61.5,59.5,30.09,SSW,205,2.0,5.0,93,0.00,,,0.00,VWS V14.01,2013-09-19 05:23:00,
2013-09-19 01:28:00,61.6,59.6,30.09,SW,221,1.0,3.0,93,0.00,,,0.00,VWS V14.01,2013-09-19 05:28:00,
2013-09-19 01:33:00,61.6,59.6,30.10,SSW,204,0.0,1.0,93,0.00,,,0.00,VWS V14.01,2013-09-19 05:33:00,
2013-09-19 01:38:00,61.7,59.7,30.10,SE,124,1.0,3.0,93,0.00,,,0.00,VWS V14.01,2013-09-19 05:38:00,
2013-09-19 01:43:00,61.8,59.5,30.09,SE,130,2.0,3.0,92,0.00,,,0.00,VWS V14.01,2013-09-19 05:43:00,
2013-09-19 01:48:00,61.8,59.5,30.09,SSE,162,1.0,1.0,92,0.00,,,0.00,VWS V14.01,2013-09-19 05:48:00,
2013-09-19 01:53:00,61.9,59.5,30.10,SSE,156,0.0,2.0,92,0.00,,,0.00,VWS V14.01,2013-09-19 05:53:00,
2013-09-19 01:58:00,61.9,59.5,30.10,SW,236,0.0,3.0,92,0.00,,,0.00,VWS V14.01,2013-09-19 05:58:00,
2013-09-19 02:03:00,62.0,59.7,30.10,SSE,160,2.0,3.0,92,0.00,,,0.00,VWS V14.01,2013-09-19 06:03:00,
2013-09-19 02:08:00,62.0,59.7,30.09,South,190,1.0,2.0,92,0.00,,,0.00,VWS V14.01,2013-09-19 06:08:00,
2013-09-19 02:13:00,62.1,59.8,30.09,SW,225,0.0,2.0,92,0.00,,,0.00,VWS V14.01,2013-09-19 06:13:00,
2013-09-19 02:18:00,62.1,59.8,30.09,SSW,209,0.0,0.0,92,0.00,,,0.00,VWS V14.01,2013-09-19 06:18:00,
2013-09-19 02:23:00,62.1,59.8,30.09,SSW,204,0.0,2.0,92,0.00,,,0.00,VWS V14.01,2013-09-19 06:23:00,
2013-09-19 02:28:00,62.1,59.8,30.09,SSW,204,0.0,0.0,92,0.00,,,0.00,VWS V14.01,2013-09-19 06:28:00,
2013-09-19 02:33:00,62.1,59.8,30.09,SSW,205,0.0,0.0,92,0.00,,,0.00,VWS V14.01,2013-09-19 06:33:00,
2013-09-19 02:38:00,62.1,59.8,30.09,SE,146,0.0,1.0,92,0.00,,,0.00,VWS V14.01,2013-09-19 06:38:00,
2013-09-19 02:43:00,62.1,59.8,30.08,SSW,204,0.0,0.0,92,0.00,,,0.00,VWS V14.01,2013-09-19 06:43:00,
2013-09-19 02:48:00,62.0,59.3,30.08,SSW,204,0.0,0.0,91,0.00,,,0.00,VWS V14.01,2013-09-19 06:48:00,
2013-09-19 02:53:00,61.8,59.5,30.08,SSW,204,0.0,0.0,92,0.00,,,0.00,VWS V14.01,2013-09-19 06:53:00,
2013-09-19 02:58:00,61.6,59.3,30.08,SSW,204,0.0,0.0,92,0.00,,,0.00,VWS V14.01,2013-09-19 06:58:00,
2013-09-19 03:04:00,61.4,59.1,30.08,SSW,204,0.0,0.0,92,0.00,,,0.00,VWS V14.01,2013-09-19 07:04:00,
2013-09-19 03:09:00,61.2,59.2,30.08,SSW,204,0.0,0.0,93,0.00,,,0.00,VWS V14.01,2013-09-19 07:09:00,
2013-09-19 03:14:00,61.0,59.0,30.08,SSW,204,0.0,0.0,93,0.00,,,0.00,VWS V14.01,2013-09-19 07:14:00,
2013-09-19 03:18:00,61.0,59.0,30.08,SSW,204,0.0,0.0,93,0.00,,,0.00,VWS V14.01,2013-09-19 07:18:00,
2013-09-19 03:24:00,61.0,59.3,30.08,SE,134,0.0,3.0,94,0.00,,,0.00,VWS V14.01,2013-09-19 07:24:00,
2013-09-19 03:29:00,61.2,59.5,30.08,SSW,202,1.0,1.0,94,0.00,,,0.00,VWS V14.01,2013-09-19 07:29:00,
2013-09-19 03:34:00,61.3,59.6,30.08,SSE,160,1.0,3.0,94,0.00,,,0.00,VWS V14.01,2013-09-19 07:34:00,
2013-09-19 03:39:00,61.5,59.8,30.08,West,264,0.0,2.0,94,0.00,,,0.00,VWS V14.01,2013-09-19 07:39:00,
2013-09-19 03:44:00,61.7,60.0,30.08,SW,216,2.0,3.0,94,0.00,,,0.00,VWS V14.01,2013-09-19 07:44:00,
2013-09-19 03:49:00,61.9,60.2,30.08,SE,126,1.0,2.0,94,0.00,,,0.00,VWS V14.01,2013-09-19 07:49:00,
2013-09-19 03:54:00,62.0,60.0,30.08,SSE,153,0.0,1.0,93,0.00,,,0.00,VWS V14.01,2013-09-19 07:54:00,
2013-09-19 03:59:00,62.1,60.1,30.08,SSW,197,3.0,4.0,93,0.00,,,0.00,VWS V14.01,2013-09-19 07:59:00,
2013-09-19 04:04:00,62.2,60.2,30.07,SSW,204,1.0,3.0,93,0.00,,,0.00,VWS V14.01,2013-09-19 08:04:00,
2013-09-19 04:09:00,62.3,60.6,30.07,SSW,194,3.0,3.0,94,0.00,,,0.00,VWS V14.01,2013-09-19 08:09:00,
2013-09-19 04:14:00,62.2,60.5,30.07,WSW,257,1.0,3.0,94,0.00,,,0.00,VWS V14.01,2013-09-19 08:14:00,
2013-09-19 04:19:00,62.3,60.6,30.07,SSE,156,0.0,2.0,94,0.00,,,0.00,VWS V14.01,2013-09-19 08:19:00,
2013-09-19 04:24:00,62.3,60.6,30.07,WSW,238,1.0,5.0,94,0.00,,,0.00,VWS V14.01,2013-09-19 08:24:00,
2013-09-19 04:29:00,62.3,60.6,30.07,SW,221,0.0,2.0,94,0.00,,,0.00,VWS V14.01,2013-09-19 08:29:00,
2013-09-19 04:34:00,62.3,60.6,30.07,SE,142,0.0,3.0,94,0.00,,,0.00,VWS V14.01,2013-09-19 08:34:00,
2013-09-19 04:39:00,62.4,60.7,30.07,SSW,209,0.0,4.0,94,0.00,,,0.00,VWS V14.01,2013-09-19 08:39:00,
2013-09-19 04:44:00,62.4,60.7,30.08,SSW,200,0.0,5.0,94,0.00,,,0.00,VWS V14.01,2013-09-19 08:44:00,
2013-09-19 04:49:00,62.4,60.7,30.07,SSE,167,0.0,3.0,94,0.00,,,0.00,VWS V14.01,2013-09-19 08:49:00,
2013-09-19 04:54:00,62.4,60.7,30.07,SSW,198,0.0,2.0,94,0.00,,,0.00,VWS V14.01,2013-09-19 08:54:00,
2013-09-19 04:59:00,62.4,60.7,30.07,SSE,160,1.0,2.0,94,0.00,,,0.00,VWS V14.01,2013-09-19 08:59:00,
2013-09-19 05:04:00,62.4,60.3,30.07,SE,146,0.0,2.0,93,0.00,,,0.00,VWS V14.01,2013-09-19 09:04:00,
2013-09-19 05:09:00,62.4,60.3,30.07,SSE,160,2.0,5.0,93,0.00,,,0.00,VWS V14.01,2013-09-19 09:09:00,
2013-09-19 05:14:00,62.5,60.5,30.07,SSE,159,3.0,3.0,93,0.00,,,0.00,VWS V14.01,2013-09-19 09:14:00,
2013-09-19 05:19:00,62.5,60.5,30.07,WSW,240,1.0,4.0,93,0.00,,,0.00,VWS V14.01,2013-09-19 09:19:00,
2013-09-19 05:24:00,62.6,60.5,30.07,SSE,156,0.0,0.0,93,0.00,,,0.00,VWS V14.01,2013-09-19 09:24:00,
2013-09-19 05:29:00,62.6,60.5,30.07,SSE,152,0.0,1.0,93,0.00,,,0.00,VWS V14.01,2013-09-19 09:29:00,
2013-09-19 05:34:00,62.6,60.5,30.07,SSE,166,0.0,3.0,93,0.00,,,0.00,VWS V14.01,2013-09-19 09:34:00,
2013-09-19 05:39:00,62.6,60.5,30.07,SSE,155,1.0,1.0,93,0.00,,,0.00,VWS V14.01,2013-09-19 09:39:00,
2013-09-19 05:44:00,62.6,60.5,30.07,SW,224,0.0,0.0,93,0.00,,,0.00,VWS V14.01,2013-09-19 09:44:00,
2013-09-19 05:49:00,62.7,60.7,30.07,SE,136,0.0,0.0,93,0.00,,,0.00,VWS V14.01,2013-09-19 09:49:00,
2013-09-19 05:54:00,62.7,60.7,30.07,SSE,152,4.0,4.0,93,0.00,,,0.00,VWS V14.01,2013-09-19 09:54:00,
2013-09-19 05:59:00,62.7,60.7,30.06,SSE,156,0.0,1.0,93,0.00,,,0.00,VWS V14.01,2013-09-19 09:59:00,
2013-09-19 06:04:00,62.7,60.7,30.06,SSE,155,1.0,1.0,93,0.00,,,0.00,VWS V14.01,2013-09-19 10:04:00,
2013-09-19 06:09:00,62.7,60.7,30.06,South,176,3.0,5.0,93,0.00,,,0.00,VWS V14.01,2013-09-19 10:09:00,
2013-09-19 06:14:00,62.7,60.7,30.06,SE,146,0.0,0.0,93,0.00,,,0.00,VWS V14.01,2013-09-19 10:14:00,
2013-09-19 06:19:00,62.7,60.7,30.06,SSE,166,3.0,3.0,93,0.00,,,0.00,VWS V14.01,2013-09-19 10:19:00,
2013-09-19 06:24:00,62.7,61.0,30.06,SSE,167,1.0,1.0,94,0.00,,,0.00,VWS V14.01,2013-09-19 10:24:00,
2013-09-19 06:29:00,62.7,61.0,30.06,SE,138,0.0,0.0,94,0.00,,,0.00,VWS V14.01,2013-09-19 10:29:00,
2013-09-19 06:34:00,62.7,61.0,30.06,SSE,156,1.0,1.0,94,0.00,,,0.00,VWS V14.01,2013-09-19 10:34:00,
2013-09-19 06:39:00,62.7,61.0,30.06,SE,146,0.0,2.0,94,0.00,,,0.00,VWS V14.01,2013-09-19 10:39:00,
2013-09-19 06:44:00,62.7,61.0,30.06,SE,131,0.0,0.0,94,0.00,,,0.00,VWS V14.01,2013-09-19 10:44:00,
2013-09-19 06:49:00,62.7,61.0,30.07,SSE,156,1.0,1.0,94,0.00,,,0.00,VWS V14.01,2013-09-19 10:49:00,
2013-09-19 06:54:00,62.7,61.0,30.07,SW,219,2.0,2.0,94,0.00,,,0.00,VWS V14.01,2013-09-19 10:54:00,
2013-09-19 06:59:00,62.7,61.0,30.07,SSE,162,1.0,2.0,94,0.00,,,0.00,VWS V14.01,2013-09-19 10:59:00,
2013-09-19 07:05:00,62.8,61.0,30.07,SSE,153,1.0,1.0,94,0.00,,,0.00,VWS V14.01,2013-09-19 11:05:00,
2013-09-19 07:10:00,62.8,61.0,30.07,SW,215,4.0,4.0,94,0.00,,,0.00,VWS V14.01,2013-09-19 11:10:00,
2013-09-19 07:15:00,62.8,61.0,30.07,SW,228,0.0,4.0,94,0.00,,,0.00,weatherlink.com 1.10,2013-09-19 11:15:00,
2013-09-19 07:20:00,62.8,61.0,30.07,SSE,149,2.0,4.0,94,0.00,,,0.00,VWS V14.01,2013-09-19 11:20:00,
2013-09-19 07:25:00,62.8,61.0,30.08,SW,221,0.0,1.0,94,0.00,,,0.00,VWS V14.01,2013-09-19 11:25:00,
2013-09-19 07:30:00,62.8,61.0,30.08,SSE,153,3.0,3.0,94,0.00,,,0.00,VWS V14.01,2013-09-19 11:30:00,
2013-09-19 07:35:00,62.8,61.0,30.08,SE,146,2.0,2.0,94,0.00,,,0.00,VWS V14.01,2013-09-19 11:35:00,
2013-09-19 07:40:00,62.8,61.0,30.08,East,100,2.0,2.0,94,0.00,,,0.00,VWS V14.01,2013-09-19 11:40:00,
2013-09-19 07:45:00,62.8,61.0,30.08,SW,226,0.0,1.0,94,0.00,,,0.00,VWS V14.01,2013-09-19 11:45:00,
2013-09-19 07:50:00,62.8,61.0,30.08,SW,214,0.0,4.0,94,0.00,,,0.00,VWS V14.01,2013-09-19 11:50:00,
2013-09-19 07:55:00,62.8,61.0,30.08,SSW,198,1.0,3.0,94,0.00,,,0.00,VWS V14.01,2013-09-19 11:55:00,
2013-09-19 08:00:00,62.8,61.0,30.08,SSE,149,1.0,1.0,94,0.00,,,0.00,VWS V14.01,2013-09-19 12:00:00,
2013-09-19 08:05:00,62.8,61.0,30.08,SE,134,1.0,3.0,94,0.00,,,0.00,VWS V14.01,2013-09-19 12:05:00,
2013-09-19 08:10:00,62.8,61.0,30.09,SSE,157,1.0,4.0,94,0.00,,,0.00,VWS V14.01,2013-09-19 12:10:00,
2013-09-19 08:15:00,62.8,61.3,30.08,South,172,2.0,2.0,95,0.00,,,0.00,VWS V14.01,2013-09-19 12:15:00,
2013-09-19 08:20:00,62.8,61.0,30.08,SE,127,3.0,4.0,94,0.00,,,0.00,VWS V14.01,2013-09-19 12:20:00,
2013-09-19 08:25:00,62.9,61.5,30.08,SSE,156,2.0,2.0,95,0.00,,,0.00,VWS V14.01,2013-09-19 12:25:00,
2013-09-19 08:30:00,62.9,61.2,30.08,SSE,150,0.0,2.0,94,0.00,,,0.00,VWS V14.01,2013-09-19 12:30:00,
2013-09-19 08:35:00,63.0,61.2,30.08,West,274,3.0,4.0,94,0.00,,,0.00,VWS V14.01,2013-09-19 12:35:00,
2013-09-19 08:40:00,63.0,61.2,30.08,South,177,0.0,2.0,94,0.00,,,0.00,VWS V14.01,2013-09-19 12:40:00,
2013-09-19 08:45:00,63.1,61.3,30.09,SSW,195,4.0,5.0,94,0.00,,,0.00,VWS V14.01,2013-09-19 12:45:00,
2013-09-19 08:50:00,63.2,61.5,30.09,SE,134,2.0,2.0,94,0.00,,,0.00,VWS V14.01,2013-09-19 12:50:00,
2013-09-19 08:55:00,63.2,61.5,30.09,SSW,211,0.0,1.0,94,0.00,,,0.00,VWS V14.01,2013-09-19 12:55:00,
2013-09-19 09:00:00,63.4,61.7,30.09,SE,124,2.0,2.0,94,0.00,,,0.00,VWS V14.01,2013-09-19 13:00:00,
2013-09-19 09:05:00,63.4,61.3,30.09,NW,304,0.0,2.0,93,0.00,,,0.00,VWS V14.01,2013-09-19 13:05:00,
2013-09-19 09:10:00,63.5,61.4,30.09,SW,232,1.0,1.0,93,0.00,,,0.00,VWS V14.01,2013-09-19 13:10:00,
2013-09-19 09:15:00,63.7,61.6,30.08,SSE,166,3.0,3.0,93,0.00,,,0.00,VWS V14.01,2013-09-19 13:15:00,
2013-09-19 09:20:00,63.8,61.7,30.08,SSW,207,3.0,3.0,93,0.00,,,0.00,VWS V14.01,2013-09-19 13:20:00,
2013-09-19 09:25:00,64.0,61.9,30.08,SE,138,2.0,4.0,93,0.00,,,0.00,VWS V14.01,2013-09-19 13:25:00,
2013-09-19 09:30:00,64.2,61.8,30.09,SSE,148,0.0,0.0,92,0.00,,,0.00,VWS V14.01,2013-09-19 13:30:00,
2013-09-19 09:35:00,64.6,62.2,30.09,WSW,239,3.0,6.0,92,0.00,,,0.00,VWS V14.01,2013-09-19 13:35:00,
2013-09-19 09:40:00,64.8,62.1,30.09,SW,231,0.0,2.0,91,0.00,,,0.00,VWS V14.01,2013-09-19 13:40:00,
2013-09-19 09:45:00,64.9,62.2,30.09,SW,214,1.0,1.0,91,0.00,,,0.00,VWS V14.01,2013-09-19 13:45:00,
2013-09-19 09:50:00,65.3,62.6,30.09,SSE,158,4.0,4.0,91,0.00,,,0.00,VWS V14.01,2013-09-19 13:50:00,
2013-09-19 09:55:00,65.6,62.6,30.09,WSW,257,0.0,1.0,90,0.00,,,0.00,VWS V14.01,2013-09-19 13:55:00,
2013-09-19 10:00:00,66.0,62.7,30.08,SSE,164,3.0,3.0,89,0.00,,,0.00,VWS V14.01,2013-09-19 14:00:00,
2013-09-19 10:05:00,66.1,62.8,30.08,SSW,205,1.0,2.0,89,0.00,,,0.00,VWS V14.01,2013-09-19 14:05:00,
2013-09-19 10:10:00,66.4,62.7,30.08,SSW,198,0.0,4.0,88,0.00,,,0.00,VWS V14.01,2013-09-19 14:10:00,
2013-09-19 10:15:00,66.6,62.9,30.08,SE,134,5.0,5.0,88,0.00,,,0.00,VWS V14.01,2013-09-19 14:15:00,
2013-09-19 10:20:00,66.4,62.7,30.08,South,191,3.0,6.0,88,0.00,,,0.00,VWS V14.01,2013-09-19 14:20:00,
2013-09-19 10:25:00,66.4,62.7,30.08,NE,43,0.0,1.0,88,0.00,,,0.00,VWS V14.01,2013-09-19 14:25:00,
2013-09-19 10:30:00,66.7,62.7,30.08,West,268,2.0,5.0,87,0.00,,,0.00,VWS V14.01,2013-09-19 14:30:00,
2013-09-19 10:35:00,67.1,63.4,30.08,SE,134,3.0,3.0,88,0.00,,,0.00,VWS V14.01,2013-09-19 14:35:00,
2013-09-19 10:40:00,67.2,63.2,30.08,SSW,195,3.0,6.0,87,0.00,,,0.00,VWS V14.01,2013-09-19 14:40:00,
2013-09-19 10:45:00,67.3,63.3,30.08,SE,139,5.0,6.0,87,0.00,,,0.00,VWS V14.01,2013-09-19 14:45:00,
2013-09-19 10:51:00,67.7,63.4,30.08,South,170,3.0,3.0,86,0.00,,,0.00,VWS V14.01,2013-09-19 14:51:00,
2013-09-19 10:56:00,68.1,63.4,30.08,South,171,4.0,5.0,85,0.00,,,0.00,VWS V14.01,2013-09-19 14:56:00,
2013-09-19 11:01:00,68.6,63.9,30.08,ENE,58,5.0,5.0,85,0.00,,,0.00,VWS V14.01,2013-09-19 15:01:00,
2013-09-19 11:06:00,68.5,63.8,30.07,SSW,205,2.0,6.0,85,0.00,,,0.00,VWS V14.01,2013-09-19 15:06:00,
2013-09-19 11:11:00,68.3,63.3,30.07,SSW,203,5.0,6.0,84,0.00,,,0.00,VWS V14.01,2013-09-19 15:11:00,
2013-09-19 11:16:00,68.2,63.5,30.07,SE,135,0.0,5.0,85,0.00,,,0.00,VWS V14.01,2013-09-19 15:16:00,
2013-09-19 11:21:00,68.7,64.0,30.07,SE,138,3.0,5.0,85,0.00,,,0.00,VWS V14.01,2013-09-19 15:21:00,
2013-09-19 11:26:00,69.0,64.0,30.07,ESE,115,2.0,6.0,84,0.00,,,0.00,VWS V14.01,2013-09-19 15:26:00,
2013-09-19 11:31:00,69.3,63.9,30.06,ENE,74,3.0,7.0,83,0.00,,,0.00,VWS V14.01,2013-09-19 15:31:00,
2013-09-19 11:36:00,69.0,63.6,30.07,South,181,2.0,7.0,83,0.00,,,0.00,VWS V14.01,2013-09-19 15:36:00,
2013-09-19 11:41:00,69.3,63.6,30.06,SSE,153,3.0,7.0,82,0.00,,,0.00,VWS V14.01,2013-09-19 15:41:00,
2013-09-19 11:46:00,69.6,63.9,30.06,SSW,207,4.0,10.0,82,0.00,,,0.00,VWS V14.01,2013-09-19 15:46:00,
2013-09-19 11:51:00,70.0,64.3,30.06,SSW,194,0.0,4.0,82,0.00,,,0.00,VWS V14.01,2013-09-19 15:51:00,
2013-09-19 11:56:00,70.4,64.3,30.06,SSE,159,3.0,7.0,81,0.00,,,0.00,VWS V14.01,2013-09-19 15:56:00,
2013-09-19 12:01:00,70.5,64.0,30.06,SSW,195,4.0,7.0,80,0.00,,,0.00,VWS V14.01,2013-09-19 16:01:00,
2013-09-19 12:06:00,70.4,64.3,30.06,SSE,160,4.0,6.0,81,0.00,,,0.00,VWS V14.01,2013-09-19 16:06:00,
2013-09-19 12:11:00,70.8,64.0,30.06,East,96,6.0,7.0,79,0.00,,,0.00,VWS V14.01,2013-09-19 16:11:00,
2013-09-19 12:16:00,70.9,64.4,30.05,SSE,161,4.0,6.0,80,0.00,,,0.00,VWS V14.01,2013-09-19 16:16:00,
2013-09-19 12:21:00,71.6,64.8,30.05,SE,128,0.0,4.0,79,0.00,,,0.00,VWS V14.01,2013-09-19 16:21:00,
2013-09-19 12:26:00,72.3,65.1,30.05,North,353,2.0,3.0,78,0.00,,,0.00,VWS V14.01,2013-09-19 16:26:00,
2013-09-19 12:31:00,72.4,64.4,30.05,NW,325,0.0,6.0,76,0.00,,,0.00,VWS V14.01,2013-09-19 16:31:00,
2013-09-19 12:37:00,72.8,64.8,30.05,South,186,1.0,3.0,76,0.00,,,0.00,VWS V14.01,2013-09-19 16:37:00,
2013-09-19 12:42:00,73.1,64.7,30.05,SW,215,6.0,8.0,75,0.00,,,0.00,VWS V14.01,2013-09-19 16:42:00,
2013-09-19 12:47:00,73.0,64.6,30.05,SW,236,1.0,6.0,75,0.00,,,0.00,VWS V14.01,2013-09-19 16:47:00,
2013-09-19 12:52:00,73.1,65.1,30.05,SE,134,2.0,6.0,76,0.00,,,0.00,VWS V14.01,2013-09-19 16:52:00,
2013-09-19 12:57:00,73.8,64.6,30.04,East,82,4.0,6.0,73,0.00,,,0.00,VWS V14.01,2013-09-19 16:57:00,
2013-09-19 13:02:00,73.7,64.5,30.04,SW,225,5.0,7.0,73,0.00,,,0.00,VWS V14.01,2013-09-19 17:02:00,
2013-09-19 13:07:00,73.6,64.8,30.04,SE,136,4.0,4.0,74,0.00,,,0.00,VWS V14.01,2013-09-19 17:07:00,
2013-09-19 13:12:00,73.2,64.4,30.04,ENE,71,3.0,6.0,74,0.00,,,0.00,VWS V14.01,2013-09-19 17:12:00,
2013-09-19 13:17:00,73.7,64.9,30.04,SW,221,4.0,8.0,74,0.00,,,0.00,VWS V14.01,2013-09-19 17:17:00,
2013-09-19 13:22:00,73.7,64.9,30.04,SSE,149,2.0,6.0,74,0.00,,,0.00,VWS V14.01,2013-09-19 17:22:00,
2013-09-19 13:27:00,74.4,65.2,30.04,SSE,162,2.0,5.0,73,0.00,,,0.00,VWS V14.01,2013-09-19 17:27:00,
2013-09-19 13:32:00,74.2,64.6,30.04,SSE,162,0.0,8.0,72,0.00,,,0.00,VWS V14.01,2013-09-19 17:32:00,
2013-09-19 13:37:00,74.1,64.9,30.04,East,98,4.0,9.0,73,0.00,,,0.00,VWS V14.01,2013-09-19 17:37:00,
2013-09-19 13:42:00,74.1,64.9,30.03,SSE,166,5.0,9.0,73,0.00,,,0.00,VWS V14.01,2013-09-19 17:42:00,
2013-09-19 13:47:00,74.2,65.4,30.04,SE,143,3.0,3.0,74,0.00,,,0.00,VWS V14.01,2013-09-19 17:47:00,
2013-09-19 13:52:00,73.9,64.7,30.03,East,98,2.0,7.0,73,0.00,,,0.00,VWS V14.01,2013-09-19 17:52:00,
2013-09-19 13:57:00,74.3,65.1,30.03,SW,217,0.0,4.0,73,0.00,,,0.00,VWS V14.01,2013-09-19 17:57:00,
2013-09-19 14:02:00,74.5,65.7,30.03,SW,229,1.0,4.0,74,0.00,,,0.00,VWS V14.01,2013-09-19 18:02:00,
2013-09-19 14:07:00,74.5,65.3,30.03,ENE,67,4.0,4.0,73,0.00,,,0.00,VWS V14.01,2013-09-19 18:07:00,
2013-09-19 14:12:00,74.3,64.7,30.02,NW,309,1.0,7.0,72,0.00,,,0.00,VWS V14.01,2013-09-19 18:12:00,
2013-09-19 14:17:00,74.4,64.8,30.02,East,86,0.0,5.0,72,0.00,,,0.00,VWS V14.01,2013-09-19 18:17:00,
2013-09-19 14:22:00,74.4,64.8,30.02,SSE,160,1.0,6.0,72,0.00,,,0.00,VWS V14.01,2013-09-19 18:22:00,
2013-09-19 14:27:00,74.6,65.4,30.02,East,101,1.0,4.0,73,0.00,,,0.00,VWS V14.01,2013-09-19 18:27:00,
2013-09-19 14:33:00,74.9,65.3,30.02,SE,142,2.0,8.0,72,0.00,,,0.00,VWS V14.01,2013-09-19 18:33:00,
2013-09-19 14:38:00,74.9,65.3,30.02,SSE,154,1.0,6.0,72,0.00,,,0.00,VWS V14.01,2013-09-19 18:38:00,
2013-09-19 14:43:00,74.8,65.2,30.01,SSE,163,3.0,7.0,72,0.00,,,0.00,VWS V14.01,2013-09-19 18:43:00,
2013-09-19 14:48:00,74.3,65.1,30.01,WSW,248,2.0,7.0,73,0.00,,,0.00,VWS V14.01,2013-09-19 18:48:00,
2013-09-19 14:53:00,74.7,65.9,30.01,East,84,3.0,6.0,74,0.00,,,0.00,VWS V14.01,2013-09-19 18:53:00,
2013-09-19 14:58:00,74.4,65.6,30.01,ESE,105,0.0,5.0,74,0.00,,,0.00,VWS V14.01,2013-09-19 18:58:00,
2013-09-19 15:03:00,74.5,65.3,30.01,South,177,1.0,7.0,73,0.00,,,0.00,VWS V14.01,2013-09-19 19:03:00,
2013-09-19 15:08:00,74.6,65.4,30.01,WSW,250,2.0,5.0,73,0.00,,,0.00,VWS V14.01,2013-09-19 19:08:00,
2013-09-19 15:13:00,74.8,66.0,30.01,ESE,116,1.0,3.0,74,0.00,,,0.00,VWS V14.01,2013-09-19 19:13:00,
2013-09-19 15:18:00,75.0,65.4,30.00,SW,217,2.0,4.0,72,0.00,,,0.00,VWS V14.01,2013-09-19 19:18:00,
2013-09-19 15:23:00,75.1,65.9,30.00,SE,135,1.0,3.0,73,0.00,,,0.00,VWS V14.01,2013-09-19 19:23:00,
2013-09-19 15:28:00,75.3,65.7,30.00,SE,135,5.0,6.0,72,0.00,,,0.00,VWS V14.01,2013-09-19 19:28:00,
2013-09-19 15:33:00,74.7,65.5,30.00,SSE,158,0.0,7.0,73,0.00,,,0.00,VWS V14.01,2013-09-19 19:33:00,
2013-09-19 15:38:00,74.4,65.2,30.00,WSW,257,1.0,6.0,73,0.00,,,0.00,VWS V14.01,2013-09-19 19:38:00,
2013-09-19 15:43:00,74.4,65.6,30.00,SSE,158,3.0,4.0,74,0.00,,,0.00,VWS V14.01,2013-09-19 19:43:00,
2013-09-19 15:48:00,74.0,65.2,30.00,SE,145,0.0,5.0,74,0.00,,,0.00,VWS V14.01,2013-09-19 19:48:00,
2013-09-19 15:53:00,74.2,65.0,30.00,ESE,110,4.0,7.0,73,0.00,,,0.00,VWS V14.01,2013-09-19 19:53:00,
2013-09-19 15:58:00,74.2,65.4,29.99,NE,56,2.0,8.0,74,0.00,,,0.00,VWS V14.01,2013-09-19 19:58:00,
2013-09-19 16:03:00,74.1,65.3,29.99,SE,136,3.0,8.0,74,0.00,,,0.00,VWS V14.01,2013-09-19 20:03:00,
2013-09-19 16:08:00,73.6,65.6,29.99,West,264,3.0,8.0,76,0.00,,,0.00,VWS V14.01,2013-09-19 20:08:00,
2013-09-19 16:13:00,73.3,65.3,30.00,ESE,122,3.0,4.0,76,0.00,,,0.00,VWS V14.01,2013-09-19 20:13:00,
2013-09-19 16:18:00,73.1,65.1,30.00,SSE,155,3.0,7.0,76,0.00,,,0.00,VWS V14.01,2013-09-19 20:18:00,
2013-09-19 16:23:00,72.7,65.1,30.00,SSW,211,1.0,5.0,77,0.00,,,0.00,VWS V14.01,2013-09-19 20:23:00,
2013-09-19 16:28:00,72.8,65.2,30.00,SSW,201,0.0,4.0,77,0.00,,,0.00,VWS V14.01,2013-09-19 20:28:00,
2013-09-19 16:33:00,73.0,65.4,30.00,SSW,195,2.0,6.0,77,0.00,,,0.00,VWS V14.01,2013-09-19 20:33:00,
2013-09-19 16:38:00,73.1,65.1,30.00,SSE,158,2.0,3.0,76,0.00,,,0.00,VWS V14.01,2013-09-19 20:38:00,
2013-09-19 16:43:00,72.8,64.8,30.01,ESE,121,0.0,7.0,76,0.00,,,0.00,VWS V14.01,2013-09-19 20:43:00,
2013-09-19 16:48:00,72.5,64.9,30.01,SSW,207,1.0,5.0,77,0.00,,,0.00,VWS V14.01,2013-09-19 20:48:00,
2013-09-19 16:53:00,72.6,65.0,30.01,SSW,201,2.0,4.0,77,0.00,,,0.00,VWS V14.01,2013-09-19 20:53:00,
2013-09-19 16:58:00,72.4,64.8,30.01,SE,145,1.0,6.0,77,0.00,,,0.00,VWS V14.01,2013-09-19 20:58:00,
2013-09-19 17:03:00,72.2,65.0,30.01,SE,141,0.0,6.0,78,0.00,,,0.00,VWS V14.01,2013-09-19 21:03:00,
2013-09-19 17:08:00,72.0,64.8,30.01,SSE,166,5.0,8.0,78,0.00,,,0.00,VWS V14.01,2013-09-19 21:08:00,
2013-09-19 17:13:00,71.6,64.8,30.01,SSE,150,0.0,6.0,79,0.00,,,0.00,VWS V14.01,2013-09-19 21:13:00,
2013-09-19 17:18:00,71.4,64.9,30.01,WSW,245,4.0,7.0,80,0.00,,,0.00,VWS V14.01,2013-09-19 21:18:00,
2013-09-19 17:23:00,71.1,64.6,30.01,SE,145,3.0,10.0,80,0.00,,,0.00,VWS V14.01,2013-09-19 21:23:00,
2013-09-19 17:28:00,70.9,64.8,30.01,SE,125,0.0,6.0,81,0.00,,,0.00,VWS V14.01,2013-09-19 21:28:00,
2013-09-19 17:34:00,70.9,64.8,30.01,SSE,158,1.0,6.0,81,0.00,,,0.00,VWS V14.01,2013-09-19 21:34:00,
2013-09-19 17:38:00,70.8,64.7,30.01,South,169,2.0,7.0,81,0.00,,,0.00,VWS V14.01,2013-09-19 21:38:00,
2013-09-19 17:43:00,70.8,64.7,30.01,ESE,105,0.0,2.0,81,0.00,,,0.00,VWS V14.01,2013-09-19 21:43:00,
2013-09-19 17:49:00,70.7,64.6,30.02,SSE,148,2.0,8.0,81,0.00,,,0.00,VWS V14.01,2013-09-19 21:49:00,
2013-09-19 17:54:00,70.6,64.5,30.02,South,169,0.0,3.0,81,0.00,,,0.00,VWS V14.01,2013-09-19 21:54:00,
2013-09-19 17:59:00,70.5,64.4,30.02,South,177,0.0,4.0,81,0.00,,,0.00,VWS V14.01,2013-09-19 21:59:00,
2013-09-19 18:04:00,70.4,64.7,30.02,SW,228,0.0,2.0,82,0.00,,,0.00,VWS V14.01,2013-09-19 22:04:00,
2013-09-19 18:09:00,70.2,64.4,30.02,SSE,155,4.0,5.0,82,0.00,,,0.00,VWS V14.01,2013-09-19 22:09:00,
2013-09-19 18:14:00,70.0,64.3,30.02,SW,226,1.0,9.0,82,0.00,,,0.00,VWS V14.01,2013-09-19 22:14:00,
2013-09-19 18:19:00,69.9,64.2,30.02,South,174,3.0,6.0,82,0.00,,,0.00,VWS V14.01,2013-09-19 22:19:00,
2013-09-19 18:24:00,69.8,64.4,30.02,SSW,203,0.0,9.0,83,0.00,,,0.00,VWS V14.01,2013-09-19 22:24:00,
2013-09-19 18:29:00,69.7,64.3,30.02,SSW,200,2.0,4.0,83,0.00,,,0.00,VWS V14.01,2013-09-19 22:29:00,
2013-09-19 18:34:00,69.6,64.2,30.02,SE,146,2.0,4.0,83,0.00,,,0.00,VWS V14.01,2013-09-19 22:34:00,
2013-09-19 18:39:00,69.5,64.1,30.02,WSW,245,0.0,4.0,83,0.00,,,0.00,VWS V14.01,2013-09-19 22:39:00,
2013-09-19 18:44:00,69.5,64.1,30.02,East,87,1.0,3.0,83,0.00,,,0.00,VWS V14.01,2013-09-19 22:44:00,
2013-09-19 18:49:00,69.4,64.0,30.02,South,180,0.0,3.0,83,0.00,,,0.00,VWS V14.01,2013-09-19 22:49:00,
2013-09-19 18:54:00,69.4,64.0,30.02,SSE,150,1.0,3.0,83,0.00,,,0.00,VWS V14.01,2013-09-19 22:54:00,
2013-09-19 18:59:00,69.3,63.9,30.01,ESE,122,1.0,4.0,83,0.00,,,0.00,VWS V14.01,2013-09-19 22:59:00,
2013-09-19 19:04:00,69.3,63.9,30.01,SSE,156,1.0,2.0,83,0.00,,,0.00,VWS V14.01,2013-09-19 23:04:00,
2013-09-19 19:09:00,69.2,64.2,30.01,SSE,159,2.0,4.0,84,0.00,,,0.00,VWS V14.01,2013-09-19 23:09:00,
2013-09-19 19:14:00,69.1,64.1,30.01,South,176,1.0,2.0,84,0.00,,,0.00,VWS V14.01,2013-09-19 23:14:00,
2013-09-19 19:19:00,69.1,64.1,30.01,WSW,242,1.0,1.0,84,0.00,,,0.00,VWS V14.01,2013-09-19 23:19:00,
2013-09-19 19:24:00,69.0,64.3,30.01,SW,224,1.0,2.0,85,0.00,,,0.00,VWS V14.01,2013-09-19 23:24:00,
2013-09-19 19:29:00,68.9,63.9,30.00,SSE,162,0.0,0.0,84,0.00,,,0.00,VWS V14.01,2013-09-19 23:29:00,
2013-09-19 19:34:00,68.9,64.2,30.00,ESE,122,0.0,1.0,85,0.00,,,0.00,VWS V14.01,2013-09-19 23:34:00,
2013-09-19 19:39:00,68.8,64.1,30.00,SE,141,3.0,4.0,85,0.00,,,0.00,VWS V14.01,2013-09-19 23:39:00,
2013-09-19 19:44:00,68.7,64.0,30.00,WSW,237,2.0,2.0,85,0.00,,,0.00,VWS V14.01,2013-09-19 23:44:00,
2013-09-19 19:49:00,68.6,63.9,30.00,SSE,159,1.0,1.0,85,0.00,,,0.00,VWS V14.01,2013-09-19 23:49:00,
2013-09-19 19:54:00,68.5,64.2,29.99,WSW,246,0.0,0.0,86,0.00,,,0.00,VWS V14.01,2013-09-19 23:54:00,
2013-09-19 19:59:00,68.5,64.2,29.99,SW,215,0.0,0.0,86,0.00,,,0.00,VWS V14.01,2013-09-19 23:59:00,
2013-09-19 20:04:00,68.4,64.1,29.99,SE,138,3.0,3.0,86,0.00,,,0.00,VWS V14.01,2013-09-20 00:04:00,
2013-09-19 20:09:00,68.3,64.0,29.99,SW,215,2.0,3.0,86,0.00,,,0.00,VWS V14.01,2013-09-20 00:09:00,
2013-09-19 20:14:00,68.3,64.0,29.99,SSE,150,1.0,2.0,86,0.00,,,0.00,VWS V14.01,2013-09-20 00:14:00,
2013-09-19 20:19:00,68.2,63.9,29.99,SSE,156,0.0,1.0,86,0.00,,,0.00,VWS V14.01,2013-09-20 00:19:00,
2013-09-19 20:24:00,68.2,64.2,29.99,SSE,155,0.0,0.0,87,0.00,,,0.00,VWS V14.01,2013-09-20 00:24:00,
2013-09-19 20:29:00,68.2,64.2,29.99,ESE,117,0.0,1.0,87,0.00,,,0.00,VWS V14.01,2013-09-20 00:29:00,
2013-09-19 20:34:00,68.1,64.1,29.99,SSW,210,1.0,1.0,87,0.00,,,0.00,VWS V14.01,2013-09-20 00:34:00,
2013-09-19 20:39:00,68.1,64.1,29.98,SSW,193,0.0,0.0,87,0.00,,,0.00,VWS V14.01,2013-09-20 00:39:00,
2013-09-19 20:44:00,68.1,64.1,29.98,SSE,160,0.0,0.0,87,0.00,,,0.00,VWS V14.01,2013-09-20 00:44:00,
2013-09-19 20:49:00,68.0,64.0,29.98,SSE,160,0.0,0.0,87,0.00,,,0.00,VWS V14.01,2013-09-20 00:49:00,
2013-09-19 20:54:00,67.9,63.9,29.97,SSW,205,2.0,2.0,87,0.00,,,0.00,VWS V14.01,2013-09-20 00:54:00,
2013-09-19 20:59:00,67.9,63.9,29.98,SE,135,0.0,0.0,87,0.00,,,0.00,VWS V14.01,2013-09-20 00:59:00,
2013-09-19 21:04:00,67.8,63.8,29.98,SSE,167,0.0,0.0,87,0.00,,,0.00,VWS V14.01,2013-09-20 01:04:00,
2013-09-19 21:09:00,67.8,63.8,29.98,ESE,123,0.0,0.0,87,0.00,,,0.00,VWS V14.01,2013-09-20 01:09:00,
2013-09-19 21:14:00,67.8,64.1,29.98,ENE,70,2.0,2.0,88,0.00,,,0.00,VWS V14.01,2013-09-20 01:14:00,
2013-09-19 21:19:00,67.8,64.1,29.98,SSW,195,0.0,0.0,88,0.00,,,0.00,VWS V14.01,2013-09-20 01:19:00,
2013-09-19 21:24:00,67.8,64.1,29.98,SSE,162,2.0,2.0,88,0.00,,,0.00,VWS V14.01,2013-09-20 01:24:00,
2013-09-19 21:29:00,67.8,64.1,29.98,SE,128,0.0,1.0,88,0.00,,,0.00,VWS V14.01,2013-09-20 01:29:00,
2013-09-19 21:34:00,67.8,64.1,29.98,East,100,0.0,0.0,88,0.00,,,0.00,VWS V14.01,2013-09-20 01:34:00,
2013-09-19 21:39:00,67.7,64.0,29.98,SE,141,1.0,1.0,88,0.00,,,0.00,VWS V14.01,2013-09-20 01:39:00,
2013-09-19 21:44:00,67.7,64.0,29.98,ESE,116,0.0,1.0,88,0.00,,,0.00,VWS V14.01,2013-09-20 01:44:00,
2013-09-19 21:49:00,67.7,64.0,29.97,SSE,162,0.0,0.0,88,0.00,,,0.00,VWS V14.01,2013-09-20 01:49:00,
2013-09-19 21:54:00,67.7,64.0,29.98,SSE,156,3.0,3.0,88,0.00,,,0.00,VWS V14.01,2013-09-20 01:54:00,
2013-09-19 21:59:00,67.7,64.0,29.97,SSW,197,2.0,2.0,88,0.00,,,0.00,VWS V14.01,2013-09-20 01:59:00,
2013-09-19 22:05:00,67.7,64.0,29.97,SSE,167,0.0,0.0,88,0.00,,,0.00,VWS V14.01,2013-09-20 02:05:00,
2013-09-19 22:10:00,67.7,64.0,29.98,SSW,210,0.0,1.0,88,0.00,,,0.00,VWS V14.01,2013-09-20 02:10:00,
2013-09-19 22:15:00,67.6,63.9,29.98,SE,146,2.0,5.0,88,0.00,,,0.00,VWS V14.01,2013-09-20 02:15:00,
2013-09-19 22:20:00,67.7,64.0,29.98,SW,236,1.0,5.0,88,0.00,,,0.00,VWS V14.01,2013-09-20 02:20:00,
2013-09-19 22:25:00,67.8,64.1,29.98,South,176,0.0,3.0,88,0.00,,,0.00,VWS V14.01,2013-09-20 02:25:00,
2013-09-19 22:30:00,67.9,64.2,29.98,SSW,212,2.0,3.0,88,0.00,,,0.00,VWS V14.01,2013-09-20 02:30:00,
2013-09-19 22:35:00,67.9,63.9,29.98,SSE,150,3.0,3.0,87,0.00,,,0.00,VWS V14.01,2013-09-20 02:35:00,
2013-09-19 22:40:00,67.9,63.9,29.98,WNW,298,2.0,2.0,87,0.00,,,0.00,VWS V14.01,2013-09-20 02:40:00,
2013-09-19 22:45:00,67.9,64.2,29.98,SSW,201,0.0,2.0,88,0.00,,,0.00,VWS V14.01,2013-09-20 02:45:00,
2013-09-19 22:50:00,67.8,64.1,29.98,WSW,245,0.0,2.0,88,0.00,,,0.00,VWS V14.01,2013-09-20 02:50:00,
2013-09-19 22:55:00,67.8,64.1,29.99,SE,134,2.0,2.0,88,0.00,,,0.00,VWS V14.01,2013-09-20 02:55:00,
2013-09-19 23:00:00,67.8,64.1,29.99,SSE,152,0.0,1.0,88,0.00,,,0.00,VWS V14.01,2013-09-20 03:00:00,
2013-09-19 23:05:00,67.7,64.0,29.99,SW,236,1.0,2.0,88,0.00,,,0.00,VWS V14.01,2013-09-20 03:05:00,
2013-09-19 23:10:00,67.8,64.1,30.00,SSE,162,0.0,0.0,88,0.00,,,0.00,VWS V14.01,2013-09-20 03:10:00,
2013-09-19 23:15:00,67.8,64.1,30.00,SSE,165,0.0,0.0,88,0.00,,,0.00,VWS V14.01,2013-09-20 03:15:00,
2013-09-19 23:20:00,67.8,64.1,30.00,SSW,197,0.0,1.0,88,0.00,,,0.00,VWS V14.01,2013-09-20 03:20:00,
2013-09-19 23:25:00,67.8,64.1,29.99,South,173,5.0,5.0,88,0.00,,,0.00,VWS V14.01,2013-09-20 03:25:00,
2013-09-19 23:30:00,67.9,64.2,29.99,WSW,249,2.0,3.0,88,0.00,,,0.00,VWS V14.01,2013-09-20 03:30:00,
2013-09-19 23:35:00,67.9,64.2,29.99,SE,135,2.0,2.0,88,0.00,,,0.00,VWS V14.01,2013-09-20 03:35:00,
2013-09-19 23:40:00,67.9,64.2,29.98,SSW,202,2.0,5.0,88,0.00,,,0.00,VWS V14.01,2013-09-20 03:40:00,
2013-09-19 23:45:00,67.8,64.4,29.98,ESE,123,3.0,4.0,89,0.00,,,0.00,VWS V14.01,2013-09-20 03:45:00,
2013-09-19 23:50:00,67.7,64.3,29.98,SSE,157,2.0,2.0,89,0.00,,,0.00,VWS V14.01,2013-09-20 03:50:00,
2013-09-19 23:55:00,67.6,64.2,29.98,SSW,195,1.0,2.0,89,0.00,,,0.00,VWS V14.01,2013-09-20 03:55:00,